Time;durP1;ratioP1;P1;durP2;ratioP2;P2;SDS_P1;SDS_P2;PMS_P1;PMS_P2;Temp;Humidity;BMP_temperature;BMP_pressure;BME280_temperature;BME280_humidity;BME280_pressure;Samples;Min_cycle;Max_cycle;Signal;HPM_P1;HPM_P2
2023/09/02 00:02:00;;;;;;;;;;;;;;;21.03;57.56;101669.97;5063504;28;19917;-57
2023/09/02 00:04:26;;;;;;;;;;;;;;;21.02;57.44;101673.66;5063317;28;19916;-58
2023/09/02 00:06:51;;;;;;;;;;;;;;;21.01;57.37;101678.22;5063928;28;19939;-58
2023/09/02 00:09:16;;;;;;;;;;;;;;;21.02;57.37;101681.78;5060884;28;19913;-57
2023/09/02 00:11:41;;;;;;;;;;;;;;;21.02;57.41;101673.66;5063849;28;20084;-58
2023/09/02 00:14:06;;;;;;;;;;;;;;;21.00;57.52;101679.25;5063457;28;19916;-58
2023/09/02 00:16:32;;;;;;;;;;;;;;;21.01;57.46;101677.38;5063518;28;19923;-58
2023/09/02 00:18:57;;;;;;;;;;;;;;;21.01;57.30;101688.19;5063262;28;19917;-56
2023/09/02 00:21:24;;;;;;;;;;;;;;;21.01;57.44;101688.19;5063188;28;20155;-58
2023/09/02 00:23:50;;;;;;;;;;;;;;;20.98;57.62;101683.94;5062803;28;20195;-58
2023/09/02 00:26:15;;;;;;;;;;;;;;;20.98;57.21;101681.25;5063108;28;19935;-59
2023/09/02 00:28:40;;;;;;;;;;;;;;;20.98;57.30;101681.25;5063114;28;19913;-59
2023/09/02 00:31:05;;;;;;;;;;;;;;;20.97;57.27;101677.69;5063623;28;19919;-58
2023/09/02 00:33:31;;;;;;;;;;;;;;;20.97;57.41;101680.41;5063747;28;19924;-58
2023/09/02 00:35:56;;;;;;;;;;;;;;;20.97;57.63;101677.69;5062510;28;19913;-58
2023/09/02 00:38:21;;;;;;;;;;;;;;;20.97;57.55;101671.44;5062935;28;19999;-58
2023/09/02 00:40:49;;;;;;;;;;;;;;;20.97;57.26;101668.75;5063254;28;19917;-58
2023/09/02 00:43:14;;;;;;;;;;;;;;;20.96;57.61;101669.75;5060798;28;19913;-58
2023/09/02 00:45:39;;;;;;;;;;;;;;;20.96;57.56;101667.06;5063027;28;20029;-58
2023/09/02 00:48:05;;;;;;;;;;;;;;;20.96;57.26;101667.06;5061916;28;19920;-58
2023/09/02 00:50:30;;;;;;;;;;;;;;;20.96;57.27;101664.34;5061787;28;19912;-56
2023/09/02 00:52:55;;;;;;;;;;;;;;;20.96;57.41;101661.66;5062919;28;19919;-58
2023/09/02 00:55:20;;;;;;;;;;;;;;;20.95;57.45;101660.81;5062758;28;20433;-58
2023/09/02 00:57:46;;;;;;;;;;;;;;;20.95;57.42;101662.66;5063071;28;20369;-58
2023/09/02 01:00:13;;;;;;;;;;;;;;;20.95;57.23;101665.38;5062981;28;19913;-58
2023/09/02 01:02:38;;;;;;;;;;;;;;;20.95;57.29;101665.38;5061978;28;19913;-55
2023/09/02 01:05:03;;;;;;;;;;;;;;;20.94;57.21;101669.94;5077996;28;19917;-57
2023/09/02 01:07:29;;;;;;;;;;;;;;;20.94;57.37;101669.06;5062884;28;19966;-56
2023/09/02 01:09:54;;;;;;;;;;;;;;;20.94;57.53;101672.66;5062744;28;20337;-58
2023/09/02 01:12:19;;;;;;;;;;;;;;;20.93;57.46;101668.22;5065801;28;19925;-58
2023/09/02 01:14:45;;;;;;;;;;;;;;;20.93;57.22;101662.81;5067050;28;19913;-58
2023/09/02 01:17:10;;;;;;;;;;;;;;;20.93;57.21;101662.81;5067113;28;19923;-59
2023/09/02 01:19:36;;;;;;;;;;;;;;;20.93;57.50;101670.06;5066952;28;19932;-58
2023/09/02 01:22:21;;;;;;;;;;;;;;;20.93;57.22;101662.81;5065817;28;19921;-58
2023/09/02 01:25:05;;;;;;;;;;;;;;;20.92;57.35;101661.13;5054531;28;19913;-58
2023/09/02 01:27:35;;;;;;;;;;;;;;;20.92;57.21;101663.84;5064767;28;19927;-57
2023/09/02 01:30:04;;;;;;;;;;;;;;;20.93;57.47;101667.38;5065080;28;19913;-58
2023/09/02 01:32:33;;;;;;;;;;;;;;;20.92;57.36;101661.13;5066547;28;19973;-57
2023/09/02 01:35:02;;;;;;;;;;;;;;;20.91;57.18;101661.31;5066458;28;20387;-58
2023/09/02 01:37:27;;;;;;;;;;;;;;;20.91;57.25;101661.31;5065415;28;19913;-54
2023/09/02 01:39:52;;;;;;;;;;;;;;;20.90;57.21;101655.06;5066359;28;19934;-59
2023/09/02 01:42:18;;;;;;;;;;;;;;;20.91;57.13;101664.84;5065250;28;19984;-58
2023/09/02 01:44:43;;;;;;;;;;;;;;;20.90;57.12;101665.88;5065354;28;19923;-58
2023/09/02 01:47:08;;;;;;;;;;;;;;;20.90;57.20;101667.72;5065217;28;19913;-58
2023/09/02 01:49:33;;;;;;;;;;;;;;;20.90;57.01;101668.56;5065011;28;19916;-58
2023/09/02 01:51:59;;;;;;;;;;;;;;;20.90;57.05;101675.84;5066601;28;19920;-58
2023/09/02 01:54:24;;;;;;;;;;;;;;;20.89;57.32;101687.63;5064442;28;20158;-58
2023/09/02 01:56:49;;;;;;;;;;;;;;;20.89;57.20;101683.06;5065085;28;20007;-57
2023/09/02 01:59:15;;;;;;;;;;;;;;;20.88;57.07;101683.25;5064781;28;19923;-58
2023/09/02 02:01:40;;;;;;;;;;;;;;;20.88;57.15;101683.25;5066162;28;19921;-58
2023/09/02 02:04:05;;;;;;;;;;;;;;;20.89;57.37;101690.34;5065465;28;19917;-47
2023/09/02 02:06:30;;;;;;;;;;;;;;;20.87;57.13;101687.81;5066259;28;19988;-58
2023/09/02 02:08:58;;;;;;;;;;;;;;;20.87;57.07;101690.50;5063899;28;20178;-58
2023/09/02 02:11:23;;;;;;;;;;;;;;;20.87;57.26;101697.78;5081407;28;20390;-58
2023/09/02 02:13:49;;;;;;;;;;;;;;;20.87;57.44;101700.47;5081029;28;19912;-58
2023/09/02 02:16:14;;;;;;;;;;;;;;;20.87;57.28;101700.47;5065691;28;19917;-58
2023/09/02 02:18:39;;;;;;;;;;;;;;;20.86;57.17;101702.34;5065847;28;19927;-58
2023/09/02 02:21:05;;;;;;;;;;;;;;;20.86;57.09;101696.09;5065886;28;19963;-58
2023/09/02 02:23:30;;;;;;;;;;;;;;;20.85;57.20;101692.50;5064253;28;19928;-55
2023/09/02 02:26:02;;;;;;;;;;;;;;;20.51;57.33;101648.44;5065220;28;19970;-58
2023/09/02 02:28:27;;;;;;;;;;;;;;;20.85;57.13;101703.31;5065471;28;20031;-56
2023/09/02 02:30:52;;;;;;;;;;;;;;;20.85;57.09;101707.88;5065736;28;20003;-58
2023/09/02 02:33:18;;;;;;;;;;;;;;;20.85;57.24;101711.44;5065452;28;19913;-58
2023/09/02 02:35:43;;;;;;;;;;;;;;;20.85;57.13;101707.88;5065017;28;19912;-57
2023/09/02 02:38:08;;;;;;;;;;;;;;;20.83;57.11;101705.34;5064872;28;20261;-54
2023/09/02 02:40:33;;;;;;;;;;;;;;;20.85;57.36;101705.19;5065588;28;20461;-57
2023/09/02 02:42:58;;;;;;;;;;;;;;;20.84;57.08;101707.03;5065198;28;19920;-58
2023/09/02 02:45:24;;;;;;;;;;;;;;;20.82;57.25;101711.78;5065546;28;20290;-57
2023/09/02 02:47:49;;;;;;;;;;;;;;;20.82;57.30;101706.38;5065638;28;19924;-58
2023/09/02 02:50:14;;;;;;;;;;;;;;;20.83;57.18;101709.91;5063939;28;19916;-58
2023/09/02 02:52:39;;;;;;;;;;;;;;;20.83;57.35;101715.31;5065043;28;19923;-55
2023/09/02 02:55:05;;;;;;;;;;;;;;;20.83;57.06;101715.31;5064886;28;19932;-58
2023/09/02 02:57:30;;;;;;;;;;;;;;;20.83;57.12;101712.63;5065476;28;19923;-58
2023/09/02 02:59:55;;;;;;;;;;;;;;;20.82;57.19;101711.78;5063876;28;20198;-58
2023/09/02 03:02:21;;;;;;;;;;;;;;;20.82;57.05;101708.25;5064829;28;19917;-57
2023/09/02 03:04:48;;;;;;;;;;;;;;;20.81;57.11;101701.97;5064860;28;19913;-58
2023/09/02 03:07:13;;;;;;;;;;;;;;;20.82;57.26;101706.38;5063143;28;19912;-58
2023/09/02 03:09:39;;;;;;;;;;;;;;;20.81;57.04;101707.34;5078905;28;19969;-58
2023/09/02 03:12:04;;;;;;;;;;;;;;;20.81;57.01;101698.41;5065184;28;19997;-57
2023/09/02 03:14:29;;;;;;;;;;;;;;;20.81;57.16;101703.81;5064434;28;20192;-53
2023/09/02 03:16:54;;;;;;;;;;;;;;;20.80;57.01;101708.38;5065233;28;19913;-58
2023/09/02 03:19:20;;;;;;;;;;;;;;;20.80;56.99;101710.25;5064529;28;19916;-58
2023/09/02 03:21:45;;;;;;;;;;;;;;;20.81;57.10;101714.63;5064652;28;19970;-56
2023/09/02 03:24:10;;;;;;;;;;;;;;;20.80;57.05;101713.78;5064019;28;19923;-59
2023/09/02 03:26:35;;;;;;;;;;;;;;;20.79;57.06;101712.09;5065035;28;19919;-58
2023/09/02 03:29:01;;;;;;;;;;;;;;;20.80;57.19;101708.38;5064391;28;19924;-58
2023/09/02 03:31:26;;;;;;;;;;;;;;;20.79;57.03;101704.00;5065037;28;19923;-58
2023/09/02 03:33:51;;;;;;;;;;;;;;;20.79;57.01;101712.09;5061911;28;19913;-58
2023/09/02 03:36:17;;;;;;;;;;;;;;;20.79;57.18;101712.09;5063998;28;19913;-58
2023/09/02 03:38:42;;;;;;;;;;;;;;;20.79;57.17;101713.94;5063844;28;19916;-58
2023/09/02 03:41:17;;;;;;;;;;;;;;;20.78;57.28;101710.41;5063114;28;20282;-57
2023/09/02 03:43:42;;;;;;;;;;;;;;;20.79;57.03;101711.25;5064440;28;19920;-58
2023/09/02 03:46:08;;;;;;;;;;;;;;;20.77;57.36;101708.69;5063839;28;19920;-50
2023/09/02 03:48:33;;;;;;;;;;;;;;;20.77;57.06;101706.00;5064184;28;19947;-58
2023/09/02 03:51:16;;;;;;;;;;;;;;;20.78;57.24;101705.00;5064251;28;19920;-58
2023/09/02 03:53:41;;;;;;;;;;;;;;;20.77;57.24;101707.84;5062554;28;20230;-57
2023/09/02 03:56:06;;;;;;;;;;;;;;;20.76;57.21;101712.41;5064074;28;19920;-58
2023/09/02 03:58:32;;;;;;;;;;;;;;;20.76;56.95;101709.72;5064022;28;19916;-58
2023/09/02 04:00:57;;;;;;;;;;;;;;;20.77;56.97;101713.25;5064520;28;19916;-58
2023/09/02 04:03:23;;;;;;;;;;;;;;;20.75;57.06;101715.28;5064042;28;19940;-60
2023/09/02 04:05:48;;;;;;;;;;;;;;;20.76;57.09;101716.97;5063494;28;20389;-57
2023/09/02 04:08:18;;;;;;;;;;;;;;;20.75;57.25;101720.69;5063021;28;19923;-58
2023/09/02 04:10:43;;;;;;;;;;;;;;;20.75;57.28;101715.28;5063957;28;19913;-58
2023/09/02 04:13:08;;;;;;;;;;;;;;;20.76;57.09;101725.09;5064173;28;19940;-58
2023/09/02 04:15:33;;;;;;;;;;;;;;;20.74;57.21;101725.25;5063673;28;20046;-58
2023/09/02 04:17:59;;;;;;;;;;;;;;;20.75;56.93;101731.50;5063059;28;20404;-58
2023/09/02 04:20:24;;;;;;;;;;;;;;;20.75;56.97;101731.50;5063310;28;19921;-57
2023/09/02 04:22:49;;;;;;;;;;;;;;;20.74;57.28;101725.25;5063202;28;19974;-58
2023/09/02 04:25:15;;;;;;;;;;;;;;;20.74;57.16;101722.56;5063750;28;19924;-58
2023/09/02 04:27:40;;;;;;;;;;;;;;;20.74;57.24;101732.50;5063881;28;20105;-53
2023/09/02 04:30:08;;;;;;;;;;;;;;;20.73;57.04;101731.66;5063478;28;19927;-58
2023/09/02 04:32:34;;;;;;;;;;;;;;;20.73;56.93;101734.38;5063775;28;20046;-58
2023/09/02 04:34:59;;;;;;;;;;;;;;;20.73;57.05;101737.06;5062832;28;19920;-57
2023/09/02 04:37:24;;;;;;;;;;;;;;;20.72;57.12;101744.31;5062433;28;20301;-57
2023/09/02 04:39:49;;;;;;;;;;;;;;;20.73;57.08;101750.59;5078340;28;19916;-58
2023/09/02 04:42:14;;;;;;;;;;;;;;;20.72;57.22;101752.41;5063499;28;19917;-58
2023/09/02 04:44:40;;;;;;;;;;;;;;;20.72;56.96;101751.56;5063532;28;20305;-59
2023/09/02 04:47:06;;;;;;;;;;;;;;;20.72;57.29;101755.13;5062442;28;20357;-58
2023/09/02 04:49:32;;;;;;;;;;;;;;;20.73;57.22;101761.41;5063190;28;19916;-58
2023/09/02 04:51:57;;;;;;;;;;;;;;;20.71;57.26;101764.25;5063253;28;19913;-58
2023/09/02 04:54:23;;;;;;;;;;;;;;;20.72;57.13;101763.22;5062636;28;19924;-58
2023/09/02 04:56:49;;;;;;;;;;;;;;;20.72;57.36;101763.22;5063188;28;20046;-58
2023/09/02 04:59:14;;;;;;;;;;;;;;;20.71;57.37;101769.66;5062440;28;19921;-56
2023/09/02 05:01:39;;;;;;;;;;;;;;;20.72;57.13;101773.19;5062801;28;19921;-56
2023/09/02 05:04:04;;;;;;;;;;;;;;;20.72;57.37;101768.63;5062414;28;19951;-58
2023/09/02 05:06:30;;;;;;;;;;;;;;;20.71;57.32;101763.41;5056930;28;20055;-57
2023/09/02 05:08:56;;;;;;;;;;;;;;;20.71;57.19;101769.66;5062261;28;19912;-58
2023/09/02 05:11:21;;;;;;;;;;;;;;;20.71;57.57;101769.66;5062462;28;19912;-58
2023/09/02 05:13:48;;;;;;;;;;;;;;;20.71;57.66;101779.59;5062420;28;19960;-59
2023/09/02 05:16:13;;;;;;;;;;;;;;;20.71;57.72;101788.56;5058799;28;19928;-59
2023/09/02 05:18:38;;;;;;;;;;;;;;;20.72;57.59;101790.25;5062764;28;19992;-60
2023/09/02 05:21:03;;;;;;;;;;;;;;;20.72;57.85;101790.25;5062871;28;19928;-58
2023/09/02 05:23:28;;;;;;;;;;;;;;;20.74;57.75;101806.31;5061955;28;20109;-57
2023/09/02 05:25:55;;;;;;;;;;;;;;;20.74;58.12;101800.91;5056893;28;19917;-58
2023/09/02 05:28:20;;;;;;;;;;;;;;;20.73;57.90;101799.22;5061746;28;19943;-58
2023/09/02 05:30:46;;;;;;;;;;;;;;;20.72;58.32;101811.88;5062832;28;19912;-57
2023/09/02 05:33:11;;;;;;;;;;;;;;;20.75;58.13;101809.88;5058838;28;19913;-59
2023/09/02 05:35:36;;;;;;;;;;;;;;;20.73;58.08;101812.75;5059532;28;19934;-57
2023/09/02 05:38:04;;;;;;;;;;;;;;;20.74;58.19;101811.72;5061238;28;19916;-55
2023/09/02 05:40:29;;;;;;;;;;;;;;;20.75;58.20;101815.28;5067057;28;19967;-57
2023/09/02 05:42:54;;;;;;;;;;;;;;;20.75;58.21;101808.00;5061767;28;19921;-57
2023/09/02 05:45:19;;;;;;;;;;;;;;;20.75;58.40;101807.16;5050552;28;19967;-58
2023/09/02 05:47:44;;;;;;;;;;;;;;;20.75;58.19;101815.28;5054563;28;19924;-58
2023/09/02 05:50:10;;;;;;;;;;;;;;;20.75;58.24;101810.72;5061149;28;19967;-58
2023/09/02 05:52:35;;;;;;;;;;;;;;;20.75;58.19;101810.72;5059260;28;19916;-55
2023/09/02 05:55:00;;;;;;;;;;;;;;;20.75;58.43;101805.31;5059947;28;19966;-58
2023/09/02 05:57:25;;;;;;;;;;;;;;;20.77;58.24;101818.66;5059982;28;20012;-58
2023/09/02 05:59:50;;;;;;;;;;;;;;;20.76;58.46;101814.25;5065611;28;19966;-57
2023/09/02 06:02:16;;;;;;;;;;;;;;;20.75;58.02;101813.41;5066298;28;19917;-58
2023/09/02 06:04:41;;;;;;;;;;;;;;;20.76;58.26;101820.50;5063609;28;19913;-58
2023/09/02 06:07:06;;;;;;;;;;;;;;;20.76;58.60;101820.50;5065782;28;20243;-59
2023/09/02 06:09:31;;;;;;;;;;;;;;;20.76;58.58;101823.22;5064219;28;19944;-60
2023/09/02 06:11:56;;;;;;;;;;;;;;;20.75;58.53;101824.22;5065955;28;19936;-59
2023/09/02 06:14:22;;;;;;;;;;;;;;;20.75;58.83;101826.94;5062146;28;20521;-55
2023/09/02 06:16:47;;;;;;;;;;;;;;;20.76;58.53;101831.31;5064497;28;20361;-58
2023/09/02 06:19:12;;;;;;;;;;;;;;;20.76;58.73;101830.47;5054330;28;20243;-59
2023/09/02 06:21:37;;;;;;;;;;;;;;;20.76;58.72;101831.31;5060476;28;19925;-58
2023/09/02 06:24:05;;;;;;;;;;;;;;;20.76;58.66;101831.31;5064821;28;19932;-58
2023/09/02 06:26:30;;;;;;;;;;;;;;;20.77;59.05;101837.56;5060405;28;19959;-58
2023/09/02 06:28:55;;;;;;;;;;;;;;;20.77;58.73;101834.88;5057994;28;20143;-59
2023/09/02 06:31:20;;;;;;;;;;;;;;;20.77;59.17;101840.28;5061634;28;19940;-58
2023/09/02 06:33:46;;;;;;;;;;;;;;;20.77;59.24;101840.28;5061623;28;20445;-59
2023/09/02 06:36:12;;;;;;;;;;;;;;;20.76;59.24;101836.72;5061976;28;20541;-58
2023/09/02 06:38:37;;;;;;;;;;;;;;;20.77;59.53;101834.88;5061095;28;19947;-58
2023/09/02 06:41:12;;;;;;;;;;;;;;;20.77;59.56;101841.13;5062564;28;19912;-58
2023/09/02 06:43:38;;;;;;;;;;;;;;;20.77;59.61;101843.81;5065406;28;19963;-58
2023/09/02 06:46:22;;;;;;;;;;;;;;;20.77;59.46;101851.94;5063655;28;19921;-56
2023/09/02 06:48:48;;;;;;;;;;;;;;;20.79;59.74;101858.03;5061889;28;19924;-57
2023/09/02 06:51:14;;;;;;;;;;;;;;;20.80;60.58;101867.00;5064729;28;19916;-57
2023/09/02 06:53:39;;;;;;;;;;;;;;;20.77;60.97;101870.84;5059076;28;19916;-57
2023/09/02 06:56:12;;;;;;;;;;;;;;;20.72;61.36;101878.59;5065087;28;19913;-57
2023/09/02 06:58:40;;;;;;;;;;;;;;;20.66;61.79;101877.38;5059098;28;19974;-58
2023/09/02 07:01:05;;;;;;;;;;;;;;;20.63;62.17;101888.47;5062596;28;20355;-57
2023/09/02 07:03:30;;;;;;;;;;;;;;;20.60;62.32;101887.94;5064904;28;19931;-57
2023/09/02 07:06:06;;;;;;;;;;;;;;;20.58;62.51;101896.22;5062372;28;19921;-57
2023/09/02 07:08:31;;;;;;;;;;;;;;;20.54;63.15;101900.22;5058819;28;19917;-57
2023/09/02 07:10:57;;;;;;;;;;;;;;;20.54;63.12;101896.69;5063304;28;19989;-55
2023/09/02 07:13:22;;;;;;;;;;;;;;;20.52;63.21;101904.97;5058923;28;20503;-57
2023/09/02 07:15:47;;;;;;;;;;;;;;;20.52;63.45;101901.38;5063466;28;19927;-57
2023/09/02 07:18:12;;;;;;;;;;;;;;;20.51;63.48;101903.25;5061870;28;19932;-57
2023/09/02 07:20:38;;;;;;;;;;;;;;;20.52;63.44;101912.19;5054155;28;19917;-56
2023/09/02 07:23:03;;;;;;;;;;;;;;;20.49;63.58;101913.38;5055170;28;20416;-57
2023/09/02 07:25:28;;;;;;;;;;;;;;;20.50;63.60;101922.31;5064436;28;19912;-56
2023/09/02 07:27:53;;;;;;;;;;;;;;;20.50;63.65;101922.31;5057821;28;19921;-57
2023/09/02 07:30:18;;;;;;;;;;;;;;;20.51;63.45;101927.56;5063035;28;20003;-57
2023/09/02 07:32:44;;;;;;;;;;;;;;;20.51;63.43;101924.84;5055244;28;19921;-56
2023/09/02 07:35:09;;;;;;;;;;;;;;;20.50;63.61;101919.63;5056453;28;19931;-58
2023/09/02 07:37:34;;;;;;;;;;;;;;;20.48;63.74;101922.47;5063909;28;19913;-54
2023/09/02 07:39:59;;;;;;;;;;;;;;;20.47;63.73;101927.00;5063128;28;19917;-57
2023/09/02 07:42:25;;;;;;;;;;;;;;;20.49;63.65;101931.44;5064131;28;19988;-53
2023/09/02 07:44:50;;;;;;;;;;;;;;;20.53;63.29;101936.38;5062639;28;19917;-57
2023/09/02 07:47:15;;;;;;;;;;;;;;;20.56;63.21;101936.06;5056450;28;19952;-56
2023/09/02 07:49:40;;;;;;;;;;;;;;;20.57;63.20;101947.72;5057580;28;19971;-58
2023/09/02 07:52:05;;;;;;;;;;;;;;;20.59;63.65;101953.81;5062330;28;19952;-58
2023/09/02 07:54:30;;;;;;;;;;;;;;;20.58;63.55;101958.38;5060939;28;19917;-57
2023/09/02 07:56:56;;;;;;;;;;;;;;;20.55;63.99;101955.97;5059080;28;19916;-56
2023/09/02 07:59:21;;;;;;;;;;;;;;;20.54;63.87;101964.22;5062241;28;19917;-57
2023/09/02 08:01:46;;;;;;;;;;;;;;;20.54;63.65;101961.53;5063539;28;20432;-57
2023/09/02 08:04:11;;;;;;;;;;;;;;;20.56;63.63;101962.22;5063911;28;20427;-58
2023/09/02 08:06:37;;;;;;;;;;;;;;;20.58;63.11;101966.47;5063838;28;20358;-57
2023/09/02 08:09:02;;;;;;;;;;;;;;;20.59;62.80;101962.75;5062079;28;19920;-57
2023/09/02 08:11:28;;;;;;;;;;;;;;;20.61;62.54;101974.28;5063521;28;19913;-57
2023/09/02 08:13:53;;;;;;;;;;;;;;;20.64;62.50;101970.41;5064090;28;19916;-57
2023/09/02 08:16:18;;;;;;;;;;;;;;;20.65;62.42;101975.66;5063265;28;19912;-57
2023/09/02 08:18:43;;;;;;;;;;;;;;;20.68;62.09;101982.59;5063891;28;19917;-57
2023/09/02 08:21:12;;;;;;;;;;;;;;;20.70;61.69;101986.00;5062999;28;20309;-57
2023/09/02 08:23:38;;;;;;;;;;;;;;;20.70;61.75;101986.84;5061981;28;19928;-57
2023/09/02 08:26:13;;;;;;;;;;;;;;;20.72;61.66;101984.84;5062537;28;19984;-57
2023/09/02 08:28:38;;;;;;;;;;;;;;;20.74;61.66;101986.56;5062071;28;19923;-58
2023/09/02 08:31:03;;;;;;;;;;;;;;;20.75;61.34;101990.94;5063852;28;20538;-57
2023/09/02 08:33:29;;;;;;;;;;;;;;;20.75;61.11;101997.19;5063976;28;19912;-57
2023/09/02 08:35:54;;;;;;;;;;;;;;;20.76;61.07;101992.63;5063247;28;20334;-56
2023/09/02 08:38:19;;;;;;;;;;;;;;;20.76;61.07;102004.28;5063220;28;19913;-58
2023/09/02 08:40:44;;;;;;;;;;;;;;;20.78;61.15;102009.56;5064090;28;20358;-57
2023/09/02 08:43:09;;;;;;;;;;;;;;;20.78;61.17;102006.88;5063375;28;20412;-57
2023/09/02 08:45:35;;;;;;;;;;;;;;;20.78;60.81;102002.31;5063980;28;19939;-58
2023/09/02 08:48:01;;;;;;;;;;;;;;;20.79;60.96;102006.69;5063466;28;20362;-57
2023/09/02 08:50:26;;;;;;;;;;;;;;;20.80;60.93;102012.94;5063558;28;19917;-58
2023/09/02 08:52:52;;;;;;;;;;;;;;;20.79;60.70;102004.00;5063626;28;19913;-58
2023/09/02 08:55:17;;;;;;;;;;;;;;;20.80;60.58;102008.38;5063529;28;19913;-57
2023/09/02 08:57:42;;;;;;;;;;;;;;;20.80;60.88;102005.69;5063453;28;19913;-60
2023/09/02 09:00:07;;;;;;;;;;;;;;;20.81;60.81;102006.53;5062859;28;19924;-57
2023/09/02 09:02:33;;;;;;;;;;;;;;;20.81;60.45;101998.44;5063751;28;19917;-48
2023/09/02 09:05:01;;;;;;;;;;;;;;;20.81;60.67;102001.97;5063240;28;19972;-57
2023/09/02 09:07:27;;;;;;;;;;;;;;;20.82;60.43;102009.09;5063415;28;19913;-54
2023/09/02 09:09:52;;;;;;;;;;;;;;;20.82;60.46;102009.09;5062025;28;19916;-57
2023/09/02 09:12:17;;;;;;;;;;;;;;;20.82;60.50;102009.09;5063468;28;19913;-57
2023/09/02 09:14:45;;;;;;;;;;;;;;;20.82;60.50;102011.81;5079188;28;19920;-57
2023/09/02 09:17:11;;;;;;;;;;;;;;;20.82;60.39;102011.81;5063466;28;19924;-57
2023/09/02 09:19:36;;;;;;;;;;;;;;;20.83;60.35;102008.09;5078956;28;19971;-58
2023/09/02 09:22:02;;;;;;;;;;;;;;;20.83;60.53;102018.91;5062070;28;20014;-58
2023/09/02 09:24:28;;;;;;;;;;;;;;;20.83;60.36;102021.59;5062837;28;19913;-58
2023/09/02 09:26:54;;;;;;;;;;;;;;;20.82;60.18;102016.38;5063809;28;19966;-57
2023/09/02 09:29:22;;;;;;;;;;;;;;;20.83;60.21;102023.47;5062998;28;19913;-57
2023/09/02 09:31:48;;;;;;;;;;;;;;;20.84;59.99;102030.56;5064555;28;19936;-57
2023/09/02 09:34:13;;;;;;;;;;;;;;;20.84;60.08;102033.25;5067138;28;19916;-57
2023/09/02 09:36:39;;;;;;;;;;;;;;;20.84;59.96;102041.38;5066963;28;20413;-57
2023/09/02 09:39:05;;;;;;;;;;;;;;;20.84;60.03;102036.81;5063035;28;20035;-57
2023/09/02 09:41:30;;;;;;;;;;;;;;;20.86;60.31;102036.69;5067068;28;20396;-57
2023/09/02 09:44:22;;;;;;;;;;;;;;;20.86;60.18;102034.81;5066958;28;19920;-58
2023/09/02 09:46:51;;;;;;;;;;;;;;;20.86;60.28;102036.69;5066759;28;19948;-58
2023/09/02 09:49:26;;;;;;;;;;;;;;;20.86;59.75;102045.63;5066700;28;20060;-58
2023/09/02 09:52:00;;;;;;;;;;;;;;;20.87;60.03;102043.78;5067060;28;19924;-60
2023/09/02 09:54:48;;;;;;;;;;;;;;;20.87;59.77;102046.47;5066221;28;19928;-58
2023/09/02 09:57:33;;;;;;;;;;;;;;;20.87;59.68;102060.84;5065075;28;19920;-58
2023/09/02 09:59:58;;;;;;;;;;;;;;;20.88;59.74;102056.28;5066652;28;20003;-58
2023/09/02 10:02:24;;;;;;;;;;;;;;;20.88;59.85;102054.44;5066669;28;19927;-55
2023/09/02 10:04:56;;;;;;;;;;;;;;;20.89;59.69;102057.97;5066245;28;19913;-49
2023/09/02 10:07:31;;;;;;;;;;;;;;;20.90;59.89;102062.41;5065871;28;19967;-55
2023/09/02 10:10:00;;;;;;;;;;;;;;;20.89;59.78;102072.34;5065933;28;19938;-58
2023/09/02 10:12:26;;;;;;;;;;;;;;;20.91;59.66;102074.91;5066277;28;19912;-54
2023/09/02 10:14:51;;;;;;;;;;;;;;;20.91;59.83;102077.59;5066127;28;20286;-58
2023/09/02 10:17:16;;;;;;;;;;;;;;;20.91;59.51;102070.34;5066147;28;19920;-60
2023/09/02 10:19:42;;;;;;;;;;;;;;;20.91;59.71;102086.56;5066215;28;19976;-57
2023/09/02 10:22:07;;;;;;;;;;;;;;;20.92;59.71;102076.59;5066131;28;19917;-54
2023/09/02 10:24:34;;;;;;;;;;;;;;;20.91;59.65;102083.03;5065461;28;19942;-58
2023/09/02 10:26:59;;;;;;;;;;;;;;;20.91;59.89;102086.56;5066159;28;19913;-58
2023/09/02 10:29:26;;;;;;;;;;;;;;;20.92;59.63;102079.31;5081613;28;20368;-58
2023/09/02 10:31:51;;;;;;;;;;;;;;;20.92;59.57;102076.59;5064931;28;19924;-58
2023/09/02 10:34:43;;;;;;;;;;;;;;;20.91;59.69;102075.75;5065655;28;20315;-59
2023/09/02 10:37:09;;;;;;;;;;;;;;;20.93;59.77;102094.50;5062896;28;19912;-58
2023/09/02 10:39:37;;;;;;;;;;;;;;;20.93;59.69;102091.81;5064124;28;19959;-54
2023/09/02 10:42:03;;;;;;;;;;;;;;;20.94;59.88;102096.22;5065989;28;19924;-57
2023/09/02 10:44:28;;;;;;;;;;;;;;;20.95;59.46;102097.94;5065533;28;19912;-58
2023/09/02 10:46:53;;;;;;;;;;;;;;;20.95;59.45;102098.78;5064474;28;20413;-56
2023/09/02 10:49:18;;;;;;;;;;;;;;;20.96;59.45;102110.44;5064042;28;20452;-58
2023/09/02 10:51:43;;;;;;;;;;;;;;;20.97;59.46;102112.13;5081009;28;19968;-58
2023/09/02 10:54:09;;;;;;;;;;;;;;;20.97;59.52;102107.56;5065333;28;19992;-58
2023/09/02 10:56:34;;;;;;;;;;;;;;;20.97;59.59;102102.16;5065828;28;19976;-58
2023/09/02 10:59:00;;;;;;;;;;;;;;;20.97;59.48;102112.97;5065193;28;19958;-58
2023/09/02 11:01:28;;;;;;;;;;;;;;;20.97;59.50;102104.03;5065438;28;19916;-58
2023/09/02 11:03:54;;;;;;;;;;;;;;;20.97;59.64;102114.84;5065696;28;19924;-58
2023/09/02 11:06:19;;;;;;;;;;;;;;;20.98;59.62;102116.53;5063716;28;19913;-57
2023/09/02 11:08:46;;;;;;;;;;;;;;;20.97;59.66;102107.56;5064741;28;19920;-58
2023/09/02 11:11:11;;;;;;;;;;;;;;;20.97;59.47;102118.38;5065196;28;19927;-58
2023/09/02 11:13:55;;;;;;;;;;;;;;;20.97;59.47;102109.44;5065368;28;19913;-58
2023/09/02 11:16:21;;;;;;;;;;;;;;;20.98;59.85;102116.53;5064870;28;19916;-58
2023/09/02 11:18:46;;;;;;;;;;;;;;;21.01;59.57;102115.38;5080831;28;19942;-54
2023/09/02 11:21:27;;;;;;;;;;;;;;;21.02;59.34;102120.63;5064807;28;19936;-58
2023/09/02 11:23:52;;;;;;;;;;;;;;;21.03;59.38;102121.50;5062933;28;19917;-58
2023/09/02 11:26:18;;;;;;;;;;;;;;;21.05;59.32;102123.03;5065204;28;19919;-58
2023/09/02 11:28:43;;;;;;;;;;;;;;;21.05;59.58;102125.75;5063521;28;19912;-59
2023/09/02 11:31:10;;;;;;;;;;;;;;;21.06;59.41;102121.19;5064896;28;19919;-58
2023/09/02 11:33:37;;;;;;;;;;;;;;;21.06;59.64;102119.31;5065121;28;20003;-58
2023/09/02 11:36:02;;;;;;;;;;;;;;;21.08;59.44;102127.31;5061426;28;19916;-58
2023/09/02 11:38:27;;;;;;;;;;;;;;;21.08;59.53;102127.31;5064099;28;19917;-56
2023/09/02 11:40:53;;;;;;;;;;;;;;;21.09;59.31;102134.41;5064454;28;19919;-58
2023/09/02 11:43:18;;;;;;;;;;;;;;;21.09;59.49;102129.00;5064638;28;19917;-57
2023/09/02 11:45:43;;;;;;;;;;;;;;;21.10;59.52;102125.28;5064739;28;19912;-58
2023/09/02 11:48:08;;;;;;;;;;;;;;;21.09;59.44;102124.44;5063282;28;19955;-58
2023/09/02 11:50:34;;;;;;;;;;;;;;;21.10;59.65;102122.56;5062767;28;19960;-58
2023/09/02 11:52:59;;;;;;;;;;;;;;;21.10;59.43;102119.88;5063158;28;20315;-58
2023/09/02 11:55:25;;;;;;;;;;;;;;;21.11;59.34;102119.72;5064324;28;20004;-58
2023/09/02 11:57:50;;;;;;;;;;;;;;;21.12;59.53;102120.56;5063747;28;19980;-56
2023/09/02 12:00:16;;;;;;;;;;;;;;;21.11;59.54;102127.84;5064383;28;19912;-58
2023/09/02 12:02:42;;;;;;;;;;;;;;;21.12;59.50;102129.53;5064590;28;19921;-58
2023/09/02 12:05:07;;;;;;;;;;;;;;;21.11;59.63;102130.56;5063928;28;19948;-58
2023/09/02 12:07:34;;;;;;;;;;;;;;;21.13;59.43;102138.50;5060727;28;19912;-57
2023/09/02 12:10:07;;;;;;;;;;;;;;;21.13;59.47;102127.69;5061248;28;19913;-57
2023/09/02 12:12:32;;;;;;;;;;;;;;;21.15;59.28;102131.94;5063947;28;19952;-47
2023/09/02 12:14:57;;;;;;;;;;;;;;;21.17;59.58;102135.31;5079536;28;19931;-58
2023/09/02 12:17:23;;;;;;;;;;;;;;;21.19;59.23;102121.66;5064050;28;20338;-58
2023/09/02 12:19:48;;;;;;;;;;;;;;;21.21;59.58;102125.91;5063617;28;19984;-57
2023/09/02 12:22:13;;;;;;;;;;;;;;;21.24;59.18;102127.47;5062802;28;19921;-58
2023/09/02 12:24:38;;;;;;;;;;;;;;;21.26;59.51;102128.16;5062517;28;19913;-58
2023/09/02 12:27:05;;;;;;;;;;;;;;;21.27;59.36;102134.41;5078763;28;20152;-58
2023/09/02 12:29:31;;;;;;;;;;;;;;;21.27;59.53;102147.94;5064073;28;20328;-58
2023/09/02 12:31:56;;;;;;;;;;;;;;;21.27;59.32;102143.34;5063750;28;19917;-58